• Join FlightAware (Why Join?)
  • Login
  • US Flag 
12:58PM EDT


 

Airport Tracker/Info


-or-


 

Live Flight TrackerFlight Track Log ✈ AR130 ✈ 10-May-2012 ✈ CYKJ - CYXD

Flight Track Log - Related Links

Times and Time Zones

All times are in EDT time to prevent confusion due to time zone crossing. See the AR130 flight status page for this flight to view local times or setup timezone preferences in your user account.

Time Position Orientation Groundspeed Altitude Reporting Facility
EDT Latitude Longitude Course Direction KTS MPH feet Rate Location/Type
06:18PM 57.1833 -106.1167 262° West 90 104 13,300  Level Winnipeg Center
06:23PM 57.1500 -106.5333 270° West 170 196 22,100 1,620 Climbing Winnipeg Center
06:24PM 57.1500 -106.6333 250° West 170 196 23,300 900 Climbing Winnipeg Center
06:25PM 57.1333 -106.7167 255° West 180 207 24,000 360 Climbing Winnipeg Center
06:26PM 57.1167 -106.8333 253° West 210 242 24,100  Climbing Winnipeg Center
06:27PM 57.1000 -106.9333 270° West 230 265 24,100 -120 Level Winnipeg Center
06:28PM 57.1000 -107.0500 255° West 240 276 23,900 -60 Descending Winnipeg Center
06:29PM 57.0833 -107.1667 270° West 240 276 24,000  Climbing Winnipeg Center
06:30PM 57.0833 -107.3000 255° West 240 276 23,900  Descending Winnipeg Center
06:31PM 57.0667 -107.4167 270° West 240 276 24,000  Climbing Winnipeg Center
06:32PM 57.0667 -107.5333 234° Southwest 240 276 23,900 -60 Descending Winnipeg Center
06:33PM 57.0333 -107.6167 270° West 240 276 23,900  Level Edmonton Center
06:34PM 57.0333 -107.7333 242° Southwest 240 276 23,900  Level Edmonton Center
06:35PM 57.0000 -107.8500 270° West 240 276 24,000  Climbing Edmonton Center
06:36PM 57.0000 -107.9833 255° West 240 276 23,900 -60 Descending Edmonton Center
06:37PM 56.9833 -108.1000 257° West 250 288 23,900  Level Edmonton Center
06:38PM 56.9667 -108.2333 270° West 250 288 23,900  Level Edmonton Center
06:39PM 56.9667 -108.3500 242° Southwest 250 288 23,900  Level Edmonton Center
06:40PM 56.9333 -108.4667 270° West 250 288 23,900  Level Edmonton Center
06:41PM 56.9333 -108.6333 255° West 250 288 23,900  Level Edmonton Center
06:42PM 56.9167 -108.7500 255° West 250 288 24,000  Climbing Edmonton Center
06:43PM 56.9000 -108.8667 257° West 250 288 23,900 -60 Descending Edmonton Center
06:44PM 56.8833 -109.0000 255° West 250 288 23,900  Level Edmonton Center
06:45PM 56.8667 -109.1167 270° West 250 288 23,900  Level Edmonton Center
06:46PM 56.8667 -109.2500 264° West 250 288 23,900  Level Edmonton Center
06:48PM 56.8500 -109.5500 255° West 250 288 23,900  Level Winnipeg Center
06:49PM 56.8333 -109.6667 255° West 250 288 24,000  Climbing Winnipeg Center
06:50PM 56.8167 -109.7833 248° West 250 288 23,900 -60 Descending Winnipeg Center
06:51PM 56.7833 -109.9333 255° West 250 288 23,900  Level Winnipeg Center
06:52PM 56.7667 -110.0500 270° West 250 288 23,900  Level Winnipeg Center
06:53PM 56.7667 -110.1667 255° West 250 288 23,900  Level Winnipeg Center
06:54PM 56.7500 -110.2833 257° West 250 288 23,900  Level Winnipeg Center
06:55PM 56.7333 -110.4167 255° West 250 288 23,900  Level Winnipeg Center
06:56PM 56.7167 -110.5333 270° West 250 288 23,900  Level Winnipeg Center
06:57PM 56.7167 -110.6833 239° Southwest 250 288 23,900  Level Winnipeg Center
06:58PM 56.6833 -110.7833 257° West 250 288 23,900  Level Winnipeg Center
06:59PM 56.6667 -110.9167 255° West 250 288 23,900  Level Winnipeg Center
07:00PM 56.6500 -111.0333 255° West 250 288 24,000  Climbing Winnipeg Center
07:01PM 56.6333 -111.1500 209° Southwest 250 288 23,900  Descending Winnipeg Center
07:02PM 56.6000 -111.1833 198° South 260 299 24,000  Climbing Edmonton Center
07:03PM 56.5167 -111.2333 203° Southwest 280 322 23,900 -60 Descending Edmonton Center
07:04PM 56.4500 -111.2833 215° Southwest 270 311 23,900  Level Edmonton Center
07:05PM 56.3833 -111.3667 203° Southwest 270 311 23,900  Level Edmonton Center
07:06PM 56.3167 -111.4167 209° Southwest 270 311 23,900  Level Edmonton Center
07:07PM 56.2333 -111.5000 203° Southwest 280 322 23,900  Level Edmonton Center
07:08PM 56.1667 -111.5500 203° Southwest 280 322 23,900  Level Edmonton Center
07:09PM 56.1000 -111.6000 204° Southwest 280 322 23,900  Level Edmonton Center
07:10PM 56.0167 -111.6667 203° Southwest 280 322 23,900  Level Edmonton Center
07:11PM 55.9500 -111.7167 203° Southwest 280 322 23,900  Level Edmonton Center
07:12PM 55.8833 -111.7667 215° Southwest 280 322 23,900  Level Edmonton Center
07:13PM 55.8167 -111.8500 199° South 280 322 23,900  Level Edmonton Center
07:14PM 55.7333 -111.9000 203° Southwest 280 322 23,900  Level Edmonton Center
07:15PM 55.6667 -111.9500 209° Southwest 280 322 23,900  Level Edmonton Center
07:16PM 55.6000 -112.0167 203° Southwest 280 322 23,900  Level Edmonton Center
07:17PM 55.5333 -112.0667 210° Southwest 280 322 24,000  Climbing Edmonton Center
07:18PM 55.4500 -112.1500 196° South 280 322 23,900 -60 Descending Edmonton Center
07:19PM 55.3833 -112.1833 203° Southwest 280 322 23,900  Level Edmonton Center
07:20PM 55.3167 -112.2333 210° Southwest 280 322 23,900  Level Edmonton Center
07:21PM 55.2333 -112.3167 203° Southwest 280 322 23,900  Level Edmonton Center
07:22PM 55.1667 -112.3667 196° South 280 322 23,900  Level Edmonton Center
07:23PM 55.1000 -112.4000 210° Southwest 280 322 23,900  Level Edmonton Center
07:24PM 55.0167 -112.4833 203° Southwest 280 322 23,900  Level Edmonton Center
07:25PM 54.9500 -112.5333 210° Southwest 280 322 23,900  Level Edmonton Center
07:26PM 54.8833 -112.6000 203° Southwest 280 322 23,900  Level Edmonton Center
07:27PM 54.8167 -112.6500 193° South 280 322 24,000  Climbing Edmonton Center
07:28PM 54.7333 -112.6833 216° Southwest 280 322 23,900 -60 Descending Edmonton Center
07:29PM 54.6667 -112.7667 203° Southwest 280 322 23,900 -180 Level Edmonton Center
07:30PM 54.6000 -112.8167 205° Southwest 280 322 23,600 -780 Descending Edmonton Center
07:31PM 54.5167 -112.8833 204° Southwest 290 334 22,400 -1,380 Descending Edmonton Center
07:32PM 54.4500 -112.9333 210° Southwest 290 334 20,900 -1,440 Descending Edmonton Center
07:33PM 54.3833 -113.0000 191° South 290 334 19,600 -1,380 Descending Edmonton Center
07:34PM 54.2833 -113.0333 224° Southwest 280 322 18,200 -1,440 Descending Edmonton Center
07:35PM 54.2333 -113.1167 193° South 280 322 16,800 -1,440 Descending Edmonton Center
07:36PM 54.1500 -113.1500 199° South 280 322 15,400 -1,560 Descending Edmonton Center
07:37PM 54.0667 -113.2000 188° South 290 334 13,700 -1,620 Descending Edmonton Center
07:38PM 54.0000 -113.2167 193° South 280 322 12,200 -1,500 Descending Edmonton Center
07:39PM 53.9167 -113.2500 191° South 270 311 10,700 -1,380 Descending Edmonton Center
07:40PM 53.8667 -113.2667 204° Southwest 270 311 9,500 -1,320 Descending Edmonton Center
07:41PM 53.8000 -113.3167 187° South 250 288 8,100 -1,500 Descending Edmonton Center
07:42PM 53.7167 -113.3333 197° South 240 276 6,600 -1,200 Descending Edmonton Center
07:43PM 53.6500 -113.3667 191° South 230 265 5,700 -540 Descending Edmonton Center
07:44PM 53.6000 -113.3833 191° South 220 253 5,600 -600 Descending Edmonton Center
07:45PM 53.5500 -113.4000 247° West 180 207 4,600 -960 Descending Edmonton Center
07:46PM 53.5333 -113.4667 241° Southwest 160 184 3,700 -900 Descending Edmonton Center
07:47PM 53.5167 -113.5167 329° Northwest 130 150 2,800 -780 Descending Edmonton Center
07:48PM 53.5500 -113.5500 329° Northwest 110 127 2,200 -600 Descending Edmonton Center